地図

経路データ

SID SEASON NUMBER BASIN SUBBASIN NAME ISO_TIME NATURE LAT LON WMO_WIND WMO_PRES WMO_AGENCY TRACK_TYPE DIST2LAND LANDFALL IFLAG USA_AGENCY USA_ATCF_ID USA_LAT USA_LON USA_RECORD USA_STATUS USA_WIND USA_PRES USA_SSHS USA_R34_NE USA_R34_SE USA_R34_SW USA_R34_NW USA_R50_NE USA_R50_SE USA_R50_SW USA_R50_NW USA_R64_NE USA_R64_SE USA_R64_SW USA_R64_NW USA_POCI USA_ROCI USA_RMW USA_EYE TOKYO_LAT TOKYO_LON TOKYO_GRADE TOKYO_WIND TOKYO_PRES TOKYO_R50_DIR TOKYO_R50_LONG TOKYO_R50_SHORT TOKYO_R30_DIR TOKYO_R30_LONG TOKYO_R30_SHORT TOKYO_LAND CMA_LAT CMA_LON CMA_CAT CMA_WIND CMA_PRES HKO_LAT HKO_LON HKO_CAT HKO_WIND HKO_PRES NEWDELHI_LAT NEWDELHI_LON NEWDELHI_GRADE NEWDELHI_WIND NEWDELHI_PRES NEWDELHI_CI NEWDELHI_DP NEWDELHI_POCI REUNION_LAT REUNION_LON REUNION_TYPE REUNION_WIND REUNION_PRES REUNION_TNUM REUNION_CI REUNION_RMW REUNION_R34_NE REUNION_R34_SE REUNION_R34_SW REUNION_R34_NW REUNION_R50_NE REUNION_R50_SE REUNION_R50_SW REUNION_R50_NW REUNION_R64_NE REUNION_R64_SE REUNION_R64_SW REUNION_R64_NW BOM_LAT BOM_LON BOM_TYPE BOM_WIND BOM_PRES BOM_TNUM BOM_CI BOM_RMW BOM_R34_NE BOM_R34_SE BOM_R34_SW BOM_R34_NW BOM_R50_NE BOM_R50_SE BOM_R50_SW BOM_R50_NW BOM_R64_NE BOM_R64_SE BOM_R64_SW BOM_R64_NW BOM_ROCI BOM_POCI BOM_EYE BOM_POS_METHOD BOM_PRES_METHOD NADI_LAT NADI_LON NADI_CAT NADI_WIND NADI_PRES WELLINGTON_LAT WELLINGTON_LON WELLINGTON_WIND WELLINGTON_PRES DS824_LAT DS824_LON DS824_STAGE DS824_WIND DS824_PRES TD9636_LAT TD9636_LON TD9636_STAGE TD9636_WIND TD9636_PRES TD9635_LAT TD9635_LON TD9635_WIND TD9635_PRES TD9635_ROCI NEUMANN_LAT NEUMANN_LON NEUMANN_CLASS NEUMANN_WIND NEUMANN_PRES MLC_LAT MLC_LON MLC_CLASS MLC_WIND MLC_PRES USA_GUST BOM_GUST BOM_GUST_PER REUNION_GUST REUNION_GUST_PER USA_SEAHGT USA_SEARAD_NE USA_SEARAD_SE USA_SEARAD_SW USA_SEARAD_NW STORM_SPEED STORM_DIR
1954060N06136 1954 10 WP MM NOT_NAMED 1954-03-01 00:00:00 TS 5.90000 136.100 main 741 740 O________OOO__ jtwc_wp WP011954 5.90000 136.100 20 -1 5.90000 136.100 TC 20 5.90000 136.100 1 20 5.90000 136.100 20 1002 180 11 305
1954060N06136 1954 10 WP MM NOT_NAMED 1954-03-01 03:00:00 TS 6.21103 135.656 main 773 773 P________PPP__ WP011954 6.21254 135.670 22 -1 6.21254 135.670 TC 22 6.20648 135.615 1 22 6.21254 135.670 22 1001 210 11 308
1954060N06136 1954 10 WP MM NOT_NAMED 1954-03-01 06:00:00 TS 6.54790 135.269 996 tokyo main 807 807 OOO______OPO__ jtwc_wp WP011954 6.50000 135.200 25 -1 7.00000 135.200 2 996 0 0 0 6.70000 136.400 1 29 996 6.50000 135.200 TC 25 6.49022 135.123 1 25 6.50000 135.200 25 1001 240 11 301
1954060N06136 1954 10 WP MM NOT_NAMED 1954-03-01 09:00:00 TS 6.75830 134.752 main 830 784 PPP______PPP__ WP011954 6.73748 134.665 27 -1 7.00003 134.725 2 996 0 0 6.70038 135.565 1 29 996 6.73748 134.665 TC 27 6.72885 134.620 1 27 6.73748 134.665 27 1000 240 11 288
1954060N06136 1954 10 WP MM NOT_NAMED 1954-03-01 12:00:00 TS 6.88636 134.209 996 tokyo main 784 742 OOO______OOO__ jtwc_wp WP011954 6.90000 134.100 30 -1 7.00000 134.200 2 996 0 0 0 6.70000 134.800 1 29 996 6.90000 134.100 TC 30 6.90000 134.100 1 30 6.90000 134.100 30 999 240 11 279
1954060N06136 1954 10 WP MM NOT_NAMED 1954-03-01 15:00:00 TS 6.92984 133.655 main 742 701 PPP______PPP__ WP011954 6.95746 133.542 35 0 7.00003 133.600 2 995 0 0 6.71226 134.142 1 33 995 6.95746 133.542 TC 35 6.99439 133.561 1 33 6.95746 133.542 35 998 210 11 275
1954060N06136 1954 10 WP MM NOT_NAMED 1954-03-01 18:00:00 TS 6.97584 133.087 995 tokyo main 701 662 OOO______OPO__ jtwc_wp WP011954 7.00000 133.000 40 0 7.00000 133.000 2 995 0 0 0 6.80000 133.500 2 38 995 7.00000 133.000 TC 40 7.05506 133.019 1 37 7.00000 133.000 40 997 180 11 277
1954060N06136 1954 10 WP MM NOT_NAMED 1954-03-01 21:00:00 TS 7.06008 132.530 main 651 596 PPP______PPP__ WP011954 7.09742 132.492 42 0 6.92490 132.485 2 995 0 0 7.00511 132.728 2 38 995 7.09742 132.492 TC 42 7.13817 132.493 1 41 7.09742 132.492 42 996 180 11 284
1954060N06136 1954 10 WP MM NOT_NAMED 1954-03-02 00:00:00 TS 7.25000 132.000 995 tokyo main 596 540 OOO______OOO__ jtwc_wp WP011954 7.30000 132.000 45 0 7.00000 132.000 9 995 0 0 0 7.30000 132.000 2 38 995 7.30000 132.000 TC 45 7.30000 132.000 2 45 7.30000 132.000 45 995 180 12 299
1954060N06136 1954 10 WP MM NOT_NAMED 1954-03-02 03:00:00 TS 7.62430 131.488 main 540 496 PPP______PPP__ WP011954 7.66254 131.470 47 0 7.46247 131.493 9 995 0 0 7.64981 131.455 2 38 995 7.66254 131.470 TC 47 7.64592 131.568 2 46 7.66254 131.470 47 994 210 13 310
1954060N06136 1954 10 WP MM NOT_NAMED 1954-03-02 06:00:00 TS 8.06159 131.028 995 tokyo main 487 456 OOO______OPO__ jtwc_wp WP011954 8.10000 131.000 50 0 8.00000 131.000 9 995 0 0 0 8.00000 131.000 2 38 995 8.10000 131.000 TC 50 8.06957 131.170 2 47 8.10000 131.000 50 993 240 12 315
1954060N06136 1954 10 WP MM NOT_NAMED 1954-03-02 09:00:00 TS 8.44299 130.648 main 447 422 PPP______PPP__ WP011954 8.52237 130.677 50 0 8.30244 130.535 9 995 0 0 8.27994 130.535 2 38 994 8.52237 130.677 TC 50 8.50846 130.787 2 48 8.52237 130.677 50 992 210 10 314
1954060N06136 1954 10 WP MM NOT_NAMED 1954-03-02 12:00:00 TS 8.76667 130.300 995 tokyo main 425 401 OOO______OOO__ jtwc_wp WP011954 8.90000 130.400 50 0 8.50000 130.100 9 995 0 0 0 8.50000 130.100 2 38 994 8.90000 130.400 TC 50 8.90000 130.400 2 50 8.90000 130.400 50 992 180 9 309
1954060N06136 1954 10 WP MM NOT_NAMED 1954-03-02 15:00:00 TS 9.01613 129.941 main 391 365 PPP______PPP__ WP011954 9.18741 130.080 50 0 8.67238 129.707 9 992 0 0 8.67238 129.707 2 43 992 9.18741 130.080 TC 50 9.18979 129.990 2 48 9.18741 130.080 50 992 210 9 300
1954060N06136 1954 10 WP MM NOT_NAMED 1954-03-02 18:00:00 TS 9.20328 129.545 990 tokyo main 354 312 OOO______OPO__ jtwc_wp WP011954 9.40000 129.700 50 0 8.80000 129.300 9 990 0 0 0 8.80000 129.300 3 48 990 9.40000 129.700 TC 50 9.41970 129.572 2 47 9.40000 129.700 50 992 240 9 292
1954060N06136 1954 10 WP MM NOT_NAMED 1954-03-02 21:00:00 TS 9.36125 129.065 main 314 264 PPP______PPP__ WP011954 9.58754 129.215 47 0 8.90755 128.800 9 990 0 0 8.90755 128.800 3 48 990 9.58754 129.215 TC 47 9.58976 129.143 2 46 9.58754 129.215 47 992 210 10 285
1954060N06136 1954 10 WP MM NOT_NAMED 1954-03-03 00:00:00 TS 9.46667 128.567 990 tokyo main 264 222 OOO______OOO__ jtwc_wp WP011954 9.70000 128.700 45 0 9.00000 128.300 9 990 0 0 0 9.00000 128.300 3 48 990 9.70000 128.700 TC 45 9.70000 128.700 2 45 9.70000 128.700 45 993 180 9 280
1954060N06136 1954 10 WP MM NOT_NAMED 1954-03-03 03:00:00 TS 9.52261 128.133 main 211 168 PPP______PPP__ WP011954 9.72238 128.250 42 0 9.10738 127.892 9 990 0 0 9.09985 127.900 3 48 990 9.72238 128.250 TC 42 9.76129 128.255 2 43 9.72238 128.250 42 993 180 9 275
1954060N06136 1954 10 WP MM NOT_NAMED 1954-03-03 06:00:00 TS 9.54451 127.699 990 tokyo main 168 128 OOO______OPO__ jtwc_wp WP011954 9.70000 127.800 40 0 9.20000 127.500 9 990 0 0 0 9.20000 127.500 3 48 990 9.70000 127.800 TC 40 9.76708 127.795 2 42 9.70000 127.800 40 994 180 9 273
1954060N06136 1954 10 WP MM NOT_NAMED 1954-03-03 09:00:00 TS 9.56483 127.227 main 118 70 PPP______PPP__ WP011954 9.69992 127.315 40 0 9.24238 127.080 9 990 0 0 9.30746 127.023 3 48 990 9.69992 127.315 TC 40 9.73935 127.312 2 41 9.69992 127.315 40 994 180 10 272
1954060N06136 1954 10 WP MM NOT_NAMED 1954-03-03 12:00:00 TS 9.58333 126.717 990 tokyo main 70 24 OOO______OOO__ jtwc_wp WP011954 9.70000 126.800 40 0 9.30000 126.600 9 990 0 0 0 9.40000 126.500 3 48 990 9.70000 126.800 TC 40 9.70000 126.800 2 40 9.70000 126.800 40 995 180 10 273
1954060N06136 1954 10 WP MM NOT_NAMED 1954-03-03 15:00:00 TS 9.62066 126.171 main 24 0 PPP______PPP__ WP011954 9.70741 126.265 37 0 9.45004 126.015 9 990 0 0 9.45745 125.957 3 48 990 9.70741 126.265 TC 37 9.69426 126.258 2 37 9.70741 126.265 37 995 180 11 273
1954060N06136 1954 10 WP MM NOT_NAMED 1954-03-03 18:00:00 TS 9.64664 125.598 990 tokyo main 0 0 OOO______OPO__ jtwc_wp WP011954 9.70000 125.700 35 0 9.60000 125.400 9 990 0 0 0 9.50000 125.400 3 48 990 9.70000 125.700 TC 35 9.67982 125.688 2 35 9.70000 125.700 35 996 180 11 271
1954060N06136 1954 10 WP MM NOT_NAMED 1954-03-03 21:00:00 TS 9.64961 125.014 main 44 11 PPP______PPP__ WP011954 9.66493 125.108 32 -1 9.69494 124.828 9 992 0 0 9.55748 124.835 3 43 992 9.66493 125.108 TC 32 9.65046 125.099 2 32 9.66493 125.108 32 996 150 12 269
1954060N06136 1954 10 WP MM NOT_NAMED 1954-03-04 00:00:00 TS 9.61667 124.433 995 tokyo main 10 0 OOO______OOO__ jtwc_wp WP011954 9.60000 124.500 30 -1 9.70000 124.300 9 995 0 0 0 9.60000 124.300 2 38 995 9.60000 124.500 TC 30 9.60000 124.500 1 30 9.60000 124.500 30 997 120 11 264
1954060N06136 1954 10 WP MM NOT_NAMED 1954-03-04 03:00:00 TS 9.53148 123.878 main 11 0 PPP______PPP__ WP011954 9.50740 123.900 27 -1 9.53488 123.835 9 995 0 0 9.60738 123.835 2 38 995 9.50740 123.900 TC 27 9.52445 123.900 1 28 9.50740 123.900 27 997 150 11 261
1954060N06136 1954 10 WP MM NOT_NAMED 1954-03-04 06:00:00 TS 9.44423 123.340 995 tokyo main 0 0 OOO______OPO__ jtwc_wp WP011954 9.40000 123.300 25 -1 9.40000 123.400 9 995 0 0 0 9.60000 123.400 2 38 995 9.40000 123.300 TC 25 9.42822 123.300 1 27 9.40000 123.300 25 998 180 10 265
1954060N06136 1954 10 WP MM NOT_NAMED 1954-03-04 09:00:00 TS 9.43508 122.829 main 0 0 PPP______PPP__ WP011954 9.29770 122.700 25 -1 9.53491 122.958 9 995 0 0 9.59991 122.958 2 38 995 9.29770 122.700 TC 25 9.31789 122.700 1 26 9.29770 122.700 25 999 150 10 273
1954060N06136 1954 10 WP MM NOT_NAMED 1954-03-04 12:00:00 TS 9.50000 122.367 995 tokyo main 15 15 OOO______OOO__ jtwc_wp WP011954 9.20000 122.100 25 -1 9.70000 122.500 9 995 0 0 0 9.60000 122.500 2 38 995 9.20000 122.100 TC 25 9.20000 122.100 1 25 9.20000 122.100 25 1000 120 9 284
1954060N06136 1954 10 WP MM NOT_NAMED 1954-03-04 15:00:00 TS 9.64380 121.985 main 49 49 _PP___________ WP011954 -1 9.68005 121.985 9 995 0 0 9.60755 121.985 2 38 995 TC 1 9 277
1954060N06136 1954 10 WP MM NOT_NAMED 1954-03-04 18:00:00 TS 9.60000 121.500 995 tokyo main 99 99 _OO___________ -1 9.60000 121.500 9 995 0 0 0 9.60000 121.500 2 38 995 1 9 265
1954060N06136 1954 10 WP MM NOT_NAMED 1954-03-04 21:00:00 TS 9.56123 121.083 main 125 125 _PP___________ -1 9.55748 121.083 9 997 0 0 9.56498 121.082 2 33 997 1 7 262
1954060N06136 1954 10 WP MM NOT_NAMED 1954-03-05 00:00:00 TS 9.50000 120.800 1000 tokyo main 157 156 _OO___________ -1 9.50000 120.800 2 1000 0 0 0 9.50000 120.800 1 29 1000 4 248
1954060N06136 1954 10 WP MM NOT_NAMED 1954-03-05 03:00:00 TS 9.41119 120.705 main 164 164 _PP___________ -1 9.41494 120.705 2 1002 0 0 9.40744 120.705 1 1002 2 207
1954060N06136 1954 10 WP MM NOT_NAMED 1954-03-05 06:00:00 TS 9.30000 120.700 1004 tokyo main 172 172 _OO___________ -1 9.30000 120.700 2 1004 0 0 0 9.30000 120.700 0 1004 3 189
1954060N06136 1954 10 WP MM NOT_NAMED 1954-03-05 09:00:00 TS 9.16375 120.658 main 180 180 _PP___________ -1 9.13500 120.657 2 1004 0 0 9.19250 120.658 0 1004 3 201
1954060N06136 1954 10 WP MM NOT_NAMED 1954-03-05 12:00:00 TS 9.05000 120.600 1004 tokyo main 182 182 _OO___________ -1 9.00000 120.600 2 1004 0 0 0 9.10000 120.600 0 1004 2 223
1954060N06136 1954 10 WP MM NOT_NAMED 1954-03-05 15:00:00 TS 9.00625 120.508 main 185 179 _PP___________ -1 8.97750 120.508 2 1005 0 0 9.03500 120.507 0 1005 2 256
1954060N06136 1954 10 WP MM NOT_NAMED 1954-03-05 18:00:00 TS 9.00000 120.400 1006 tokyo main 179 172 _OO___________ -1 9.00000 120.400 2 1006 0 0 0 9.00000 120.400 0 1006 2 267
1954060N06136 1954 10 WP MM NOT_NAMED 1954-03-05 21:00:00 TS 8.99625 120.300 main 172 165 _PP___________ -1 9.00000 120.300 2 1007 0 0 8.99250 120.300 0 1007 2 270
1954060N06136 1954 10 WP MM NOT_NAMED 1954-03-06 00:00:00 TS 9.00000 120.200 1008 tokyo main 165 157 _OO___________ -1 9.00000 120.200 2 1008 0 0 0 9.00000 120.200 0 1008 2 271
1954060N06136 1954 10 WP MM NOT_NAMED 1954-03-06 03:00:00 TS 9.00126 120.100 main 157 151 _PP___________ -1 9.00000 120.100 2 1007 0 0 9.00251 120.100 0 1007 2 270
1954060N06136 1954 10 WP MM NOT_NAMED 1954-03-06 06:00:00 TS 9.00000 120.000 1006 tokyo main 151 _OO___________ -1 9.00000 120.000 2 1006 0 0 0 9.00000 120.000 0 1006 2 269

デジタル台風データ・検索

IBTrACS Databaseについて

本データベースは、米国NOAAが公開する1842年以降の世界の熱帯低気圧のベストトラックデータアーカイブInternational Best Track Archive for Climate Stewardship (IBTrACS)を、ウェブで閲覧しやすい形式に変換したものです。

最終更新日:2021-11-26